Time;durP1;ratioP1;P1;durP2;ratioP2;P2;SDS_P1;SDS_P2;PMS_P1;PMS_P2;Temp;Humidity;BMP_temperature;BMP_pressure;BME280_temperature;BME280_humidity;BME280_pressure;Samples;Min_cycle;Max_cycle;Signal;HPM_P1;HPM_P2
2022/06/10 00:00:50;;;;;;;0.10;0.10;;;10.60;99.90;;;;;;4961299;28;20393;-84
2022/06/10 00:03:18;;;;;;;0.10;0.10;;;10.50;99.90;;;;;;4959240;28;20043;-85
2022/06/10 00:05:47;;;;;;;0.00;0.00;;;10.50;99.90;;;;;;4975744;28;20043;-85
2022/06/10 00:08:16;;;;;;;3.95;0.60;;;10.50;99.90;;;;;;4976067;28;20042;-85
2022/06/10 00:10:45;;;;;;;0.10;0.10;;;10.50;99.90;;;;;;4991770;28;20074;-85
2022/06/10 00:13:12;;;;;;;0.00;0.00;;;10.50;99.90;;;;;;4959387;28;20050;-81
2022/06/10 00:15:38;;;;;;;0.05;0.05;;;10.70;99.90;;;;;;4977039;28;20073;-82
2022/06/10 00:18:04;;;;;;;0.47;0.38;;;10.50;99.90;;;;;;4959023;28;20085;-82
2022/06/10 00:20:32;;;;;;;0.00;0.00;;;10.40;99.90;;;;;;4950181;28;20077;-82
2022/06/10 00:22:58;;;;;;;0.10;0.10;;;10.40;99.90;;;;;;4970995;28;20050;-82
2022/06/10 00:25:25;;;;;;;0.43;0.43;;;10.40;99.90;;;;;;4963735;28;20046;-82
2022/06/10 00:27:52;;;;;;;0.10;0.10;;;10.40;99.90;;;;;;4994489;28;20042;-82
2022/06/10 00:30:21;;;;;;;0.10;0.10;;;10.40;99.90;;;;;;4977113;28;20061;-82
2022/06/10 00:32:46;;;;;;;0.00;0.00;;;10.40;99.90;;;;;;4991644;28;20046;-81
2022/06/10 00:35:14;;;;;;;0.00;0.00;;;10.40;99.90;;;;;;4975337;28;20038;-81
2022/06/10 00:37:41;;;;;;;0.10;0.10;;;10.40;99.90;;;;;;4959412;28;20422;-82
2022/06/10 00:40:12;;;;;;;0.10;0.10;;;10.40;99.90;;;;;;4975415;28;20367;-82
2022/06/10 00:42:38;;;;;;;0.00;0.00;;;10.40;99.90;;;;;;4976780;28;20053;-82
2022/06/10 00:45:25;;;;;;;0.03;0.03;;;10.40;99.90;;;;;;4992815;28;20130;-82
2022/06/10 00:47:50;;;;;;;0.10;0.10;;;10.40;99.90;;;;;;4994166;28;20465;-85
2022/06/10 00:50:22;;;;;;;0.10;0.10;;;10.40;99.90;;;;;;4962473;28;20054;-85
2022/06/10 00:53:01;;;;;;;0.32;0.32;;;10.40;99.90;;;;;;4977348;28;20045;-85
2022/06/10 00:55:28;;;;;;;0.10;0.10;;;10.50;99.90;;;;;;4978694;28;20373;-85
2022/06/10 00:58:00;;;;;;;0.05;0.05;;;10.50;99.90;;;;;;4978000;28;20045;-85
2022/06/10 01:00:28;;;;;;;0.10;0.10;;;10.90;99.90;;;;;;4978244;28;20057;-85
2022/06/10 01:02:54;;;;;;;0.00;0.00;;;10.40;99.90;;;;;;4994304;28;20392;-82
2022/06/10 01:05:24;;;;;;;0.10;0.10;;;10.40;99.90;;;;;;4962175;28;20042;-81
2022/06/10 01:08:03;;;;;;;0.10;0.10;;;10.40;99.90;;;;;;4993754;28;20046;-81
2022/06/10 01:10:37;;;;;;;0.00;0.00;;;10.70;99.90;;;;;;4978008;28;20129;-81
2022/06/10 01:13:18;;;;;;;0.10;0.10;;;10.30;99.90;;;;;;4977809;28;20050;-81
2022/06/10 01:15:59;;;;;;;0.00;0.00;;;10.30;99.90;;;;;;4993785;28;20038;-81
2022/06/10 01:18:31;;;;;;;0.10;0.10;;;10.20;99.90;;;;;;4993160;28;20052;-82
2022/06/10 01:21:28;;;;;;;0.05;0.05;;;10.20;99.90;;;;;;4993513;28;20077;-85
2022/06/10 01:24:28;;;;;;;0.15;0.15;;;10.20;99.90;;;;;;5002794;28;20062;-85
2022/06/10 01:27:48;;;;;;;0.30;0.30;;;10.20;99.90;;;;;;4990357;28;20078;-84
2022/06/10 01:30:41;;;;;;;0.00;0.00;;;10.10;99.90;;;;;;5006571;28;20039;-84
2022/06/10 01:33:39;;;;;;;0.20;0.20;;;10.20;99.90;;;;;;4958360;28;20089;-84
2022/06/10 01:36:12;;;;;;;0.10;0.10;;;10.20;99.90;;;;;;4963349;28;20034;-84
2022/06/10 01:38:57;;;;;;;0.00;0.00;;;10.20;99.90;;;;;;4957920;28;20054;-84
2022/06/10 01:42:00;;;;;;;0.00;0.00;;;10.20;99.90;;;;;;4974070;28;20130;-84
2022/06/10 01:44:57;;;;;;;0.10;0.10;;;10.20;99.90;;;;;;4971458;28;20050;-84
2022/06/10 01:47:31;;;;;;;;;;;10.10;99.90;;;;;;4992850;28;20397;-84
2022/06/10 01:50:11;;;;;;;0.15;0.15;;;10.10;99.90;;;;;;5009939;28;19929;-84
2022/06/10 01:52:39;;;;;;;0.17;0.17;;;10.10;99.90;;;;;;4977452;28;20042;-84
2022/06/10 01:55:21;;;;;;;0.15;0.15;;;10.10;99.90;;;;;;4993387;28;20034;-84
2022/06/10 01:57:57;;;;;;;0.30;0.20;;;10.00;99.90;;;;;;4977678;28;20053;-84
2022/06/10 02:00:27;;;;;;;0.00;0.00;;;10.10;99.90;;;;;;4993182;28;20483;-84
2022/06/10 02:03:04;;;;;;;0.10;0.10;;;10.00;99.90;;;;;;4976595;28;20042;-84
2022/06/10 02:05:37;;;;;;;0.22;0.17;;;10.00;99.90;;;;;;4962632;28;20038;-84
2022/06/10 02:08:16;;;;;;;0.00;0.00;;;10.00;99.90;;;;;;4957753;28;20043;-84
2022/06/10 02:11:08;;;;;;;0.10;0.10;;;10.00;99.90;;;;;;4973282;28;20408;-82
2022/06/10 02:13:59;;;;;;;0.20;0.17;;;10.00;99.90;;;;;;4985230;28;20389;-81
2022/06/10 02:16:31;;;;;;;0.15;0.15;;;10.10;99.90;;;;;;4967732;28;20058;-81
2022/06/10 02:19:15;;;;;;;0.10;0.10;;;9.90;99.90;;;;;;4972183;28;20050;-82
2022/06/10 02:22:01;;;;;;;0.00;0.00;;;10.00;99.90;;;;;;4976065;28;20518;-82
2022/06/10 02:24:31;;;;;;;0.23;0.23;;;9.90;99.90;;;;;;4972250;28;20121;-81
2022/06/10 02:27:05;;;;;;;2.58;2.38;;;9.90;99.90;;;;;;4958692;28;20046;-82
2022/06/10 02:29:39;;;;;;;0.15;0.13;;;9.90;99.90;;;;;;4985202;28;20053;-81
2022/06/10 02:32:05;;;;;;;0.40;0.40;;;9.90;99.90;;;;;;4973680;28;20034;-81
2022/06/10 02:34:31;;;;;;;0.00;0.00;;;9.90;99.90;;;;;;4992377;28;20043;-82
2022/06/10 02:37:21;;;;;;;0.30;0.30;;;9.90;99.90;;;;;;4979990;28;20492;-81
2022/06/10 02:40:14;;;;;;;0.15;0.15;;;9.90;99.90;;;;;;4996175;28;20050;-82
2022/06/10 02:43:14;;;;;;;0.10;0.10;;;9.90;99.90;;;;;;4996839;28;20369;-83
2022/06/10 02:46:10;;;;;;;0.00;0.00;;;10.00;99.90;;;;;;4989128;28;20070;-83
2022/06/10 02:48:59;;;;;;;0.10;0.10;;;10.00;99.90;;;;;;4994190;28;20038;-83
2022/06/10 02:51:24;;;;;;;0.40;0.20;;;10.00;99.90;;;;;;4994773;28;20048;-84
2022/06/10 02:53:50;;;;;;;0.00;0.00;;;10.20;99.90;;;;;;4977354;28;20116;-84
2022/06/10 02:56:22;;;;;;;0.10;0.10;;;9.90;99.90;;;;;;4996717;28;20049;-83
2022/06/10 03:01:38;;;;;;;0.00;0.00;;;10.00;99.90;;;;;;4995942;28;20054;-81
2022/06/10 03:04:12;;;;;;;0.08;0.08;;;10.00;99.90;;;;;;4996309;28;20057;-82
2022/06/10 03:07:06;;;;;;;1.00;0.20;;;10.00;99.90;;;;;;4996926;28;20046;-82
2022/06/10 03:10:06;;;;;;;0.22;0.22;;;10.00;99.90;;;;;;4977959;28;20051;-82
2022/06/10 03:12:38;;;;;;;0.30;0.30;;;10.10;99.90;;;;;;4995905;28;20493;-82
2022/06/10 03:15:22;;;;;;;0.10;0.10;;;10.10;99.90;;;;;;4976931;28;20392;-82
2022/06/10 03:17:51;;;;;;;0.10;0.10;;;10.10;99.90;;;;;;4961152;28;20050;-82
2022/06/10 03:20:38;;;;;;;0.10;0.10;;;10.10;99.90;;;;;;4960626;28;20133;-82
2022/06/10 03:23:27;;;;;;;0.10;0.10;;;10.10;99.90;;;;;;4985321;28;20137;-81
2022/06/10 03:26:04;;;;;;;0.00;0.00;;;10.10;99.90;;;;;;4995839;28;20045;-82
2022/06/10 03:28:50;;;;;;;2.08;1.95;;;10.20;99.90;;;;;;4995318;28;20042;-81
2022/06/10 03:31:28;;;;;;;0.20;0.20;;;10.30;99.90;;;;;;4979566;28;20447;-81
2022/06/10 03:34:04;;;;;;;0.25;0.25;;;10.20;99.90;;;;;;4979906;28;20508;-84
2022/06/10 03:36:32;;;;;;;0.20;0.20;;;10.20;99.90;;;;;;5006840;28;20034;-83
2022/06/10 03:38:59;;;;;;;2.50;0.40;;;10.30;99.90;;;;;;4982290;28;20121;-84
2022/06/10 03:41:33;;;;;;;0.10;0.10;;;10.30;99.90;;;;;;4975758;28;20092;-84
2022/06/10 03:44:02;;;;;;;2.17;1.13;;;10.20;99.90;;;;;;4984413;28;20073;-83
2022/06/10 03:46:31;;;;;;;0.08;0.08;;;10.30;99.90;;;;;;4979460;28;20096;-84
2022/06/10 03:48:58;;;;;;;0.32;0.30;;;10.30;99.90;;;;;;4994484;28;20050;-84
2022/06/10 03:51:24;;;;;;;0.10;0.10;;;10.40;99.90;;;;;;4979175;28;20127;-84
2022/06/10 03:53:50;;;;;;;0.47;0.28;;;10.40;99.90;;;;;;4989113;28;20046;-84
2022/06/10 03:56:23;;;;;;;0.08;0.08;;;10.50;99.90;;;;;;4995972;28;20038;-85
2022/06/10 03:58:49;;;;;;;0.20;0.20;;;10.60;99.90;;;;;;4995748;28;20078;-85
2022/06/10 04:01:15;;;;;;;0.03;0.03;;;10.80;99.90;;;;;;4964980;28;20045;-85
2022/06/10 04:03:41;;;;;;;0.00;0.00;;;10.80;99.90;;;;;;4956763;28;20393;-85
2022/06/10 04:06:07;;;;;;;0.40;0.30;;;11.10;99.90;;;;;;4991690;28;20100;-85
2022/06/10 04:08:33;;;;;;;0.20;0.20;;;11.30;99.90;;;;;;4981580;28;20397;-85
2022/06/10 04:10:58;;;;;;;0.30;0.30;;;11.50;99.90;;;;;;4975539;28;20397;-85
2022/06/10 04:13:24;;;;;;;0.00;0.00;;;11.60;99.90;;;;;;4975820;28;20102;-85
2022/06/10 04:15:50;;;;;;;0.05;0.05;;;11.80;99.90;;;;;;4974976;28;20044;-85
2022/06/10 04:18:16;;;;;;;1.23;0.47;;;11.90;99.90;;;;;;4978955;28;20038;-85
2022/06/10 04:20:42;;;;;;;0.05;0.05;;;12.10;99.90;;;;;;4978081;28;20105;-85
2022/06/10 04:23:08;;;;;;;0.00;0.00;;;12.20;99.90;;;;;;4978837;28;20094;-85
2022/06/10 04:25:36;;;;;;;0.13;0.13;;;12.30;99.90;;;;;;4983170;28;20038;-84
2022/06/10 04:28:03;;;;;;;0.10;0.10;;;12.40;99.90;;;;;;4986693;28;20046;-85
2022/06/10 04:30:41;;;;;;;0.00;0.00;;;12.50;99.90;;;;;;4970512;28;20465;-85
2022/06/10 04:33:08;;;;;;;0.55;0.55;;;12.70;99.90;;;;;;4981626;28;20460;-85
2022/06/10 04:35:36;;;;;;;0.10;0.10;;;12.80;99.90;;;;;;4978269;28;20042;-85
2022/06/10 04:38:03;;;;;;;0.00;0.00;;;13.10;99.90;;;;;;4974961;28;20042;-85
2022/06/10 04:40:31;;;;;;;0.10;0.10;;;13.10;99.90;;;;;;4994900;28;20050;-85
2022/06/10 04:42:58;;;;;;;0.17;0.17;;;13.30;99.90;;;;;;4994915;28;20049;-85
2022/06/10 04:45:30;;;;;;;0.10;0.10;;;13.40;99.90;;;;;;4991293;28;20106;-85
2022/06/10 04:47:56;;;;;;;0.52;0.52;;;13.50;99.90;;;;;;4976141;28;20066;-85
2022/06/10 04:50:24;;;;;;;0.00;0.00;;;13.50;99.90;;;;;;4986650;28;20503;-85
2022/06/10 04:52:51;;;;;;;0.40;0.35;;;13.60;99.90;;;;;;4994022;28;20049;-84
2022/06/10 04:55:18;;;;;;;0.10;0.10;;;13.70;99.90;;;;;;4993815;28;20046;-85
2022/06/10 04:57:44;;;;;;;0.10;0.10;;;13.70;99.90;;;;;;4977201;28;20045;-82
2022/06/10 05:00:15;;;;;;;2.25;0.93;;;13.80;99.90;;;;;;4977712;28;20053;-82
2022/06/10 05:02:41;;;;;;;0.10;0.10;;;13.90;99.90;;;;;;4972727;28;20509;-82
2022/06/10 05:05:08;;;;;;;0.25;0.15;;;13.90;99.90;;;;;;4990814;28;20046;-82
2022/06/10 05:07:34;;;;;;;0.10;0.10;;;14.00;99.90;;;;;;4993884;28;20049;-82
2022/06/10 05:10:00;;;;;;;0.08;0.08;;;14.00;99.90;;;;;;4977765;28;20054;-82
2022/06/10 05:12:26;;;;;;;0.10;0.10;;;14.10;99.90;;;;;;4993986;28;20516;-84
2022/06/10 05:14:52;;;;;;;0.10;0.10;;;14.10;99.90;;;;;;4977656;28;20064;-85
2022/06/10 05:17:17;;;;;;;0.00;0.00;;;14.10;99.90;;;;;;4993747;28;20096;-85
2022/06/10 05:19:46;;;;;;;0.28;0.28;;;14.20;99.90;;;;;;4993747;28;20042;-84
2022/06/10 05:22:14;;;;;;;0.10;0.10;;;14.30;99.90;;;;;;4961577;28;20383;-84
2022/06/10 05:24:40;;;;;;;0.10;0.10;;;14.40;99.90;;;;;;4977958;28;20085;-85
2022/06/10 05:27:07;;;;;;;0.15;0.15;;;14.50;99.90;;;;;;5006886;28;20457;-85
2022/06/10 05:29:33;;;;;;;0.20;0.20;;;14.70;99.90;;;;;;5013236;28;20042;-85
2022/06/10 05:31:59;;;;;;;0.00;0.00;;;14.90;99.90;;;;;;5001551;28;20520;-85
2022/06/10 05:37:09;;;;;;;0.68;0.52;;;15.10;99.90;;;;;;5012666;28;20149;-84
2022/06/10 05:39:34;;;;;;;0.35;0.35;;;15.30;99.90;;;;;;4996267;28;20531;-84
2022/06/10 05:42:06;;;;;;;0.32;0.32;;;15.30;99.90;;;;;;5005455;28;20046;-83
2022/06/10 05:44:33;;;;;;;0.28;0.28;;;15.30;99.90;;;;;;5005568;28;20128;-84
2022/06/10 05:47:00;;;;;;;0.08;0.08;;;15.30;99.90;;;;;;5012717;28;20080;-84
2022/06/10 05:49:28;;;;;;;2.72;0.43;;;15.20;99.90;;;;;;5002842;28;20430;-83
2022/06/10 05:51:53;;;;;;;0.15;0.15;;;15.20;99.90;;;;;;5008286;28;20049;-84
2022/06/10 05:54:20;;;;;;;0.10;0.10;;;15.10;99.90;;;;;;5005765;28;20407;-85
2022/06/10 05:56:45;;;;;;;0.08;0.08;;;15.10;99.90;;;;;;5011341;28;20046;-84
2022/06/10 05:59:12;;;;;;;0.10;0.10;;;15.00;99.90;;;;;;5000724;28;20046;-84
2022/06/10 06:01:37;;;;;;;0.10;0.10;;;14.90;99.90;;;;;;5004420;28;20073;-84
2022/06/10 06:04:03;;;;;;;0.20;0.20;;;14.90;99.90;;;;;;5011804;28;20510;-82
2022/06/10 06:06:29;;;;;;;0.90;0.90;;;14.90;99.90;;;;;;4979697;28;20041;-82
2022/06/10 06:08:55;;;;;;;0.10;0.10;;;14.80;99.90;;;;;;4996021;28;20045;-82
2022/06/10 06:11:21;;;;;;;0.10;0.10;;;14.90;99.90;;;;;;4992685;28;20049;-82
2022/06/10 06:13:47;;;;;;;0.80;0.40;;;14.90;99.90;;;;;;5007115;28;20060;-82
2022/06/10 06:16:17;;;;;;;8.38;1.63;;;15.00;99.90;;;;;;5010982;28;20047;-82
2022/06/10 06:18:43;;;;;;;0.08;0.08;;;15.10;99.90;;;;;;5013103;28;20045;-82
2022/06/10 06:21:10;;;;;;;0.50;0.50;;;15.20;99.90;;;;;;4996049;28;20187;-82
2022/06/10 06:23:36;;;;;;;0.10;0.10;;;15.30;99.90;;;;;;4993544;28;20112;-82
2022/06/10 06:26:03;;;;;;;1.15;1.10;;;15.30;99.90;;;;;;5007204;28;20456;-82
2022/06/10 06:28:29;;;;;;;0.10;0.10;;;15.40;99.90;;;;;;4995417;28;20034;-81
2022/06/10 06:30:55;;;;;;;0.10;0.10;;;15.50;99.90;;;;;;5001157;28;20046;-82
2022/06/10 06:33:21;;;;;;;0.13;0.13;;;15.60;99.90;;;;;;5010330;28;20034;-81
2022/06/10 06:35:51;;;;;;;0.68;0.22;;;15.70;99.90;;;;;;4992481;28;20128;-86
2022/06/10 06:38:16;;;;;;;3.83;0.57;;;15.80;99.90;;;;;;4992896;28;20046;-86
2022/06/10 06:40:43;;;;;;;0.40;0.40;;;15.90;99.90;;;;;;5009162;28;20049;-86
2022/06/10 06:43:11;;;;;;;0.00;0.00;;;16.00;99.90;;;;;;5012329;28;20041;-85
2022/06/10 06:45:38;;;;;;;0.40;0.40;;;15.90;99.90;;;;;;4995585;28;20046;-86
2022/06/10 06:48:10;;;;;;;0.20;0.20;;;15.90;99.90;;;;;;5009656;28;20089;-85
2022/06/10 06:50:41;;;;;;;0.10;0.10;;;15.90;99.90;;;;;;4995539;28;20099;-85
2022/06/10 06:53:07;;;;;;;0.00;0.00;;;16.00;99.90;;;;;;4976562;28;20042;-86
2022/06/10 06:55:35;;;;;;;1.13;0.73;;;16.10;99.90;;;;;;5001573;28;20030;-85
2022/06/10 06:58:02;;;;;;;0.10;0.10;;;16.10;99.90;;;;;;5011132;28;20073;-85
2022/06/10 07:00:28;;;;;;;0.00;0.00;;;16.10;99.90;;;;;;5009533;28;20045;-86
2022/06/10 07:02:54;;;;;;;0.20;0.20;;;16.20;99.90;;;;;;5011433;28;20041;-85
2022/06/10 07:05:20;;;;;;;0.40;0.40;;;16.30;99.90;;;;;;5010787;28;20046;-85
2022/06/10 07:07:46;;;;;;;0.10;0.10;;;16.50;99.90;;;;;;5009959;28;20111;-86
2022/06/10 07:10:15;;;;;;;0.28;0.28;;;16.60;99.90;;;;;;5011458;28;20045;-83
2022/06/10 07:12:41;;;;;;;1.02;0.93;;;16.70;99.90;;;;;;5012085;28;20041;-83
2022/06/10 07:15:07;;;;;;;0.32;0.32;;;16.90;99.90;;;;;;5011885;28;20042;-83
2022/06/10 07:17:33;;;;;;;0.20;0.20;;;17.00;99.90;;;;;;4997650;28;20041;-84
2022/06/10 07:19:59;;;;;;;1.40;1.27;;;17.20;99.90;;;;;;5015295;28;20128;-84
2022/06/10 07:22:26;;;;;;;0.43;0.43;;;17.20;99.90;;;;;;5014884;28;20116;-85
2022/06/10 07:24:53;;;;;;;0.20;0.20;;;17.20;99.90;;;;;;4998894;28;20488;-84
2022/06/10 07:27:19;;;;;;;0.20;0.20;;;17.30;99.90;;;;;;5015118;28;20045;-84
2022/06/10 07:29:45;;;;;;;0.52;0.52;;;17.30;99.90;;;;;;4998701;28;20081;-84
2022/06/10 07:32:11;;;;;;;0.30;0.22;;;17.30;99.90;;;;;;4999771;28;20046;-85
2022/06/10 07:34:36;;;;;;;0.28;0.20;;;17.30;99.90;;;;;;5013990;28;20119;-85
2022/06/10 07:37:02;;;;;;;0.10;0.10;;;17.30;99.90;;;;;;4998806;28;20045;-84
2022/06/10 07:39:28;;;;;;;0.20;0.17;;;17.20;99.90;;;;;;4982540;28;20066;-84
2022/06/10 07:41:57;;;;;;;4.03;0.30;;;17.30;99.90;;;;;;4999049;28;20066;-84
2022/06/10 07:44:24;;;;;;;0.30;0.17;;;17.30;99.90;;;;;;4999153;28;20042;-84
2022/06/10 07:46:51;;;;;;;1.70;1.17;;;17.30;99.90;;;;;;5015453;28;20042;-84
2022/06/10 07:49:18;;;;;;;0.52;0.50;;;17.50;99.90;;;;;;5014695;28;20049;-85
2022/06/10 07:51:44;;;;;;;0.05;0.05;;;17.30;99.90;;;;;;5014435;28;20042;-84
2022/06/10 07:54:10;;;;;;;0.10;0.10;;;16.50;99.90;;;;;;4982350;28;20042;-85
2022/06/10 07:56:37;;;;;;;0.28;0.25;;;17.20;99.90;;;;;;5014552;28;20388;-85
2022/06/10 07:59:03;;;;;;;0.00;0.00;;;17.10;99.90;;;;;;4982011;28;20041;-84
2022/06/10 08:01:29;;;;;;;0.00;0.00;;;16.90;99.90;;;;;;4997786;28;20042;-83
2022/06/10 08:03:56;;;;;;;1.17;0.38;;;16.80;99.90;;;;;;4998351;28;20038;-84
2022/06/10 08:06:24;;;;;;;0.57;0.47;;;16.70;99.90;;;;;;5014494;28;20048;-83
2022/06/10 08:08:50;;;;;;;0.13;0.10;;;16.60;99.90;;;;;;4980483;28;20124;-84
2022/06/10 08:11:17;;;;;;;0.05;0.05;;;16.60;99.90;;;;;;4975526;28;20053;-83
2022/06/10 08:13:43;;;;;;;0.30;0.30;;;16.60;99.90;;;;;;5012135;28;20068;-84
2022/06/10 08:16:09;;;;;;;0.25;0.10;;;16.80;99.90;;;;;;5010426;28;20061;-85
2022/06/10 08:18:36;;;;;;;0.10;0.10;;;17.00;99.90;;;;;;4994414;28;20104;-84
2022/06/10 08:23:47;;;;;;;0.10;0.10;;;17.20;99.90;;;;;;5008247;28;20221;-84
2022/06/10 08:26:13;;;;;;;0.35;0.25;;;17.30;99.90;;;;;;4995015;28;20128;-84
2022/06/10 08:28:41;;;;;;;0.47;0.47;;;17.30;99.90;;;;;;5009069;28;20052;-85
2022/06/10 08:31:07;;;;;;;0.57;0.57;;;17.40;99.90;;;;;;5013947;28;20490;-85
2022/06/10 08:33:32;;;;;;;0.45;0.45;;;17.40;99.90;;;;;;5006627;28;20096;-82
2022/06/10 08:36:00;;;;;;;0.00;0.00;;;17.50;99.90;;;;;;4994626;28;20129;-82
2022/06/10 08:38:26;;;;;;;0.55;0.55;;;17.60;99.90;;;;;;4978257;28;20133;-82
2022/06/10 08:41:25;;;;;;;0.32;0.32;;;17.90;99.90;;;;;;4978312;28;20130;-81
2022/06/10 08:44:10;;;;;;;1.67;1.48;;;18.10;99.90;;;;;;4994710;28;20049;-81
2022/06/10 08:47:00;;;;;;;0.20;0.20;;;18.30;99.90;;;;;;5007549;28;20476;-81
2022/06/10 08:49:53;;;;;;;0.13;0.13;;;18.50;99.90;;;;;;5005380;28;20046;-83
2022/06/10 08:52:19;;;;;;;0.55;0.55;;;18.80;99.90;;;;;;4994685;28;20125;-83
2022/06/10 08:55:06;;;;;;;0.20;0.20;;;19.00;99.90;;;;;;5002387;28;20137;-83
2022/06/10 08:57:37;;;;;;;0.40;0.40;;;19.10;99.90;;;;;;4978177;28;20043;-84
2022/06/10 09:00:26;;;;;;;0.28;0.20;;;19.00;99.90;;;;;;4994189;28;20049;-84
2022/06/10 09:03:14;;;;;;;1.60;0.60;;;18.90;99.90;;;;;;4994111;28;20030;-85
2022/06/10 09:05:54;;;;;;;0.28;0.28;;;18.70;99.90;;;;;;4997008;28;20045;-85
2022/06/10 09:08:33;;;;;;;1.10;0.93;;;18.60;99.90;;;;;;5012677;28;20034;-84
2022/06/10 09:11:24;;;;;;;0.40;0.35;;;18.80;99.90;;;;;;5013308;28;20053;-82
2022/06/10 09:14:04;;;;;;;0.35;0.35;;;19.30;99.90;;;;;;5013132;28;20038;-82
2022/06/10 09:16:42;;;;;;;0.20;0.20;;;19.70;99.90;;;;;;5008782;28;20061;-82
2022/06/10 09:19:26;;;;;;;0.60;0.60;;;20.10;99.90;;;;;;5012750;28;20042;-81
2022/06/10 09:22:15;;;;;;;1.08;1.08;;;20.40;99.90;;;;;;5013058;28;20128;-82
2022/06/10 09:24:51;;;;;;;0.45;0.35;;;20.50;99.90;;;;;;5013857;28;20046;-83
2022/06/10 09:27:48;;;;;;;0.15;0.15;;;20.40;99.90;;;;;;5000816;28;20512;-85
2022/06/10 09:30:18;;;;;;;0.38;0.30;;;20.10;99.90;;;;;;5001639;28;20105;-84
2022/06/10 09:32:50;;;;;;;0.50;0.47;;;20.00;99.90;;;;;;5013577;28;20034;-84
2022/06/10 09:35:19;;;;;;;0.60;0.60;;;20.00;99.90;;;;;;5013029;28;20052;-84
2022/06/10 09:37:55;;;;;;;0.30;0.30;;;20.10;99.90;;;;;;4996449;28;20058;-84
2022/06/10 09:40:37;;;;;;;0.65;0.65;;;20.10;99.90;;;;;;5003675;28;20121;-83
2022/06/10 09:43:44;;;;;;;1.17;1.15;;;20.00;99.90;;;;;;5012168;28;20042;-84
2022/06/10 09:46:10;;;;;;;0.10;0.10;;;20.00;99.90;;;;;;4965734;28;20452;-84
2022/06/10 09:48:58;;;;;;;0.80;0.60;;;19.90;99.90;;;;;;5012561;28;20131;-85
2022/06/10 09:51:54;;;;;;;1.98;1.00;;;19.80;99.90;;;;;;4996478;28;20130;-85
2022/06/10 09:54:23;;;;;;;0.80;0.80;;;19.80;99.90;;;;;;5012537;28;20113;-84
2022/06/10 09:57:17;;;;;;;0.32;0.30;;;19.80;99.90;;;;;;5012573;28;20061;-83
2022/06/10 10:00:00;;;;;;;0.40;0.32;;;19.90;99.90;;;;;;5003593;28;20065;-85
2022/06/10 10:02:42;;;;;;;0.00;0.00;;;19.90;99.90;;;;;;5012228;28;20044;-86
2022/06/10 10:05:29;;;;;;;0.10;0.10;;;19.90;99.90;;;;;;5005130;28;20373;-87
2022/06/10 10:07:58;;;;;;;0.10;0.10;;;19.90;99.90;;;;;;4995804;28;20112;-87
2022/06/10 10:10:48;;;;;;;0.10;0.10;;;19.90;99.90;;;;;;4995376;28;20073;-87
2022/06/10 10:13:33;;;;;;;0.55;0.55;;;19.90;99.90;;;;;;4995936;28;20073;-87
2022/06/10 10:16:26;;;;;;;1.35;0.93;;;19.90;99.90;;;;;;5012033;28;20077;-84
2022/06/10 10:19:29;;;;;;;0.20;0.20;;;19.90;99.90;;;;;;4995017;28;20060;-86
2022/06/10 10:22:14;;;;;;;0.70;0.70;;;19.80;99.90;;;;;;4996297;28;20065;-86
2022/06/10 10:24:42;;;;;;;0.20;0.20;;;19.70;99.90;;;;;;4994966;28;20129;-87
2022/06/10 10:27:22;;;;;;;9.23;1.13;;;19.70;99.90;;;;;;4993961;28;20092;-87
2022/06/10 10:29:56;;;;;;;0.98;0.98;;;19.80;99.90;;;;;;5002789;28;20041;-86
2022/06/10 10:32:28;;;;;;;0.22;0.22;;;19.70;99.90;;;;;;5004076;28;20061;-86
2022/06/10 10:35:03;;;;;;;0.20;0.20;;;19.60;99.90;;;;;;4992222;28;20046;-86
2022/06/10 10:37:35;;;;;;;0.35;0.30;;;19.50;99.90;;;;;;4992186;28;20050;-86
2022/06/10 10:40:06;;;;;;;1.27;1.17;;;19.40;99.90;;;;;;4993571;28;20129;-86
2022/06/10 10:42:39;;;;;;;0.20;0.15;;;19.40;99.90;;;;;;5004373;28;20034;-86
2022/06/10 10:45:41;;;;;;;0.00;0.00;;;19.50;99.90;;;;;;4994880;28;20511;-86
2022/06/10 10:48:19;;;;;;;1.13;0.30;;;19.60;99.90;;;;;;4995023;28;20042;-87
2022/06/10 10:51:11;;;;;;;0.10;0.10;;;20.00;99.90;;;;;;4998850;28;20034;-87
2022/06/10 10:53:50;;;;;;;0.03;0.03;;;20.80;99.90;;;;;;4997413;28;20050;-86
2022/06/10 10:56:17;;;;;;;0.10;0.10;;;21.30;99.90;;;;;;4998524;28;20488;-85
2022/06/10 10:58:52;;;;;;;0.22;0.13;;;21.30;99.90;;;;;;4999612;28;20045;-85
2022/06/10 11:01:47;;;;;;;0.00;0.00;;;21.40;99.90;;;;;;4998710;28;20042;-85
2022/06/10 11:04:24;;;;;;;0.43;0.43;;;21.50;99.90;;;;;;5015685;28;20173;-86
2022/06/10 11:07:15;;;;;;;0.00;0.00;;;21.50;99.90;;;;;;5015766;28;20037;-86
2022/06/10 11:10:04;;;;;;;0.50;0.50;;;21.60;99.90;;;;;;5015673;28;20038;-86
2022/06/10 11:12:29;;;;;;;0.25;0.25;;;21.80;99.90;;;;;;4999505;28;20383;-86
2022/06/10 11:15:03;;;;;;;0.15;0.15;;;22.20;99.90;;;;;;4999325;28;20128;-86
2022/06/10 11:17:30;;;;;;;0.30;0.30;;;22.40;99.90;;;;;;5015509;28;20049;-85
2022/06/10 11:20:16;;;;;;;2.88;0.63;;;22.40;99.90;;;;;;4999167;28;20398;-83
2022/06/10 11:22:44;;;;;;;0.25;0.25;;;22.00;99.90;;;;;;5015773;28;20081;-83
2022/06/10 11:25:14;;;;;;;0.00;0.00;;;21.70;99.90;;;;;;4999422;28;20056;-83
2022/06/10 11:28:04;;;;;;;0.30;0.30;;;21.30;99.90;;;;;;5015690;28;20085;-81
2022/06/10 11:30:43;;;;;;;0.68;0.60;;;21.10;99.90;;;;;;5014907;28;20045;-84
2022/06/10 11:33:47;;;;;;;1.27;0.88;;;20.90;99.90;;;;;;4998598;28;20053;-84
2022/06/10 11:36:41;;;;;;;0.30;0.30;;;20.80;99.90;;;;;;5015092;28;20054;-81
2022/06/10 11:39:29;;;;;;;0.47;0.47;;;20.80;99.90;;;;;;4986969;28;20089;-80
2022/06/10 11:42:07;;;;;;;0.13;0.13;;;20.90;99.90;;;;;;5014155;28;20092;-83
2022/06/10 11:44:41;;;;;;;0.32;0.30;;;21.00;99.90;;;;;;4984002;28;20487;-84
2022/06/10 11:47:14;;;;;;;0.20;0.20;;;21.30;99.90;;;;;;5006806;28;20060;-87
2022/06/10 12:00:52;;;;;;;0.10;0.10;;;22.50;99.90;;;;;;4888716;29;20056;-85
2022/06/10 12:03:46;;;;;;;0.20;0.20;;;22.70;99.90;;;;;;4894415;29;20041;-85
2022/06/10 12:06:30;;;;;;;0.22;0.22;;;23.00;99.90;;;;;;4885850;29;20041;-83
2022/06/10 12:09:01;;;;;;;0.32;0.32;;;23.20;99.90;;;;;;4889380;29;20090;-84
2022/06/10 12:11:52;;;;;;;0.63;0.60;;;23.30;99.90;;;;;;4879512;29;20037;-83
2022/06/10 12:14:25;;;;;;;0.30;0.30;;;23.50;99.90;;;;;;4882930;29;20052;-87
2022/06/10 12:16:59;;;;;;;0.10;0.10;;;23.60;99.90;;;;;;4882652;29;20059;-87
2022/06/10 12:19:34;;;;;;;1.80;0.93;;;24.00;99.90;;;;;;4885662;29;20044;-87
2022/06/10 12:22:00;;;;;;;0.13;0.13;;;24.40;99.90;;;;;;4863873;29;20045;-87
2022/06/10 12:24:26;;;;;;;0.20;0.20;;;24.90;99.90;;;;;;4866773;29;20044;-87
2022/06/10 12:27:01;;;;;;;0.40;0.40;;;25.10;99.90;;;;;;4896897;29;20519;-87
2022/06/10 12:29:56;;;;;;;0.25;0.25;;;25.00;99.90;;;;;;4882963;29;20380;-82
2022/06/10 12:33:01;;;;;;;2.45;0.90;;;24.60;99.90;;;;;;4897584;29;20131;-82
2022/06/10 12:35:37;;;;;;;0.20;0.20;;;23.90;99.90;;;;;;4896973;29;20432;-82
2022/06/10 12:38:20;;;;;;;0.22;0.10;;;23.30;99.90;;;;;;4889010;29;20227;-83
2022/06/10 12:41:14;;;;;;;0.03;0.03;;;23.30;99.90;;;;;;4863160;29;20127;-82
2022/06/10 12:43:45;;;;;;;0.08;0.08;;;23.20;99.90;;;;;;4858194;29;20060;-82
2022/06/10 12:46:33;;;;;;;0.30;0.30;;;23.20;99.90;;;;;;4882519;29;20044;-87
2022/06/10 12:49:07;;;;;;;0.30;0.20;;;23.40;99.90;;;;;;4887607;29;20040;-87
2022/06/10 12:51:41;;;;;;;0.10;0.10;;;24.00;99.90;;;;;;4877747;29;20076;-87
2022/06/10 12:54:31;;;;;;;0.13;0.13;;;24.30;99.90;;;;;;4895720;29;20033;-88
2022/06/10 12:57:24;;;;;;;0.10;0.10;;;24.10;99.90;;;;;;4879761;29;20069;-87
2022/06/10 12:59:50;;;;;;;0.10;0.10;;;23.90;99.90;;;;;;4864711;29;20053;-87
2022/06/10 13:02:56;;;;;;;0.22;0.22;;;23.70;99.90;;;;;;4864546;29;20048;-88
2022/06/10 13:05:24;;;;;;;0.13;0.13;;;23.60;99.90;;;;;;4847593;29;20136;-82
2022/06/10 13:07:50;;;;;;;0.10;0.10;;;23.60;99.90;;;;;;4852662;29;20080;-83
2022/06/10 13:10:34;;;;;;;0.20;0.20;;;24.00;99.90;;;;;;4888039;29;20500;-83
2022/06/10 13:13:23;;;;;;;0.40;0.40;;;24.00;99.90;;;;;;4891396;29;20076;-83
2022/06/10 13:15:55;;;;;;;2.00;0.55;;;24.30;99.90;;;;;;4895741;29;20048;-83
2022/06/10 13:18:26;;;;;;;0.68;0.68;;;25.00;99.90;;;;;;4869562;29;20076;-83
2022/06/10 13:20:52;;;;;;;0.10;0.10;;;25.60;99.90;;;;;;4870869;29;20049;-83
2022/06/10 13:23:26;;;;;;;0.25;0.25;;;25.60;99.60;;;;;;4896907;29;20060;-83
2022/06/10 13:26:15;;;;;;;0.00;0.00;;;25.50;99.30;;;;;;4882941;29;20045;-83
2022/06/10 13:28:44;;;;;;;0.10;0.10;;;25.50;99.80;;;;;;4889690;29;20041;-83
2022/06/10 13:31:17;;;;;;;0.30;0.30;;;25.60;99.10;;;;;;4887731;29;20068;-83
2022/06/10 13:33:58;;;;;;;0.10;0.10;;;25.40;99.00;;;;;;4874561;29;20047;-83
2022/06/10 13:36:32;;;;;;;0.00;0.00;;;25.20;99.70;;;;;;4889101;29;20072;-84
2022/06/10 13:38:58;;;;;;;0.70;0.70;;;25.20;98.90;;;;;;4895159;29;20498;-84
2022/06/10 13:44:37;;;;;;;0.20;0.20;;;24.70;99.50;;;;;;4887407;29;20045;-83
2022/06/10 13:47:25;;;;;;;0.55;0.55;;;24.30;99.00;;;;;;4893115;29;20419;-83